sensor_id;sensor_type;location;lat;lon;timestamp;P1;durP1;ratioP1;P2;durP2;ratioP2
27953;SDS011;15290;48.148;17.106;2022-12-15T00:00:59;32.00;;;19.80;;
27953;SDS011;15290;48.148;17.106;2022-12-15T00:03:43;34.97;;;20.45;;
27953;SDS011;15290;48.148;17.106;2022-12-15T00:06:28;34.17;;;20.67;;
27953;SDS011;15290;48.148;17.106;2022-12-15T00:09:13;33.13;;;20.38;;
27953;SDS011;15290;48.148;17.106;2022-12-15T00:11:57;34.60;;;20.10;;
27953;SDS011;15290;48.148;17.106;2022-12-15T00:14:42;33.40;;;19.45;;
27953;SDS011;15290;48.148;17.106;2022-12-15T00:17:26;36.38;;;20.50;;
27953;SDS011;15290;48.148;17.106;2022-12-15T00:20:10;35.55;;;19.83;;
27953;SDS011;15290;48.148;17.106;2022-12-15T00:22:54;35.10;;;20.25;;
27953;SDS011;15290;48.148;17.106;2022-12-15T00:25:38;37.72;;;20.83;;
27953;SDS011;15290;48.148;17.106;2022-12-15T00:28:23;33.13;;;19.52;;
27953;SDS011;15290;48.148;17.106;2022-12-15T00:31:07;32.08;;;20.48;;
27953;SDS011;15290;48.148;17.106;2022-12-15T00:33:51;36.75;;;20.88;;
27953;SDS011;15290;48.148;17.106;2022-12-15T00:36:35;36.03;;;21.35;;
27953;SDS011;15290;48.148;17.106;2022-12-15T00:39:20;34.67;;;20.50;;
27953;SDS011;15290;48.148;17.106;2022-12-15T00:41:45;34.92;;;20.88;;
27953;SDS011;15290;48.148;17.106;2022-12-15T00:44:11;37.17;;;20.95;;
27953;SDS011;15290;48.148;17.106;2022-12-15T00:46:37;33.38;;;20.90;;
27953;SDS011;15290;48.148;17.106;2022-12-15T00:49:24;34.03;;;20.02;;
27953;SDS011;15290;48.148;17.106;2022-12-15T00:52:10;33.47;;;20.83;;
27953;SDS011;15290;48.148;17.106;2022-12-15T00:54:55;35.72;;;20.15;;
27953;SDS011;15290;48.148;17.106;2022-12-15T00:57:39;35.72;;;20.95;;
27953;SDS011;15290;48.148;17.106;2022-12-15T01:00:24;36.78;;;21.17;;
27953;SDS011;15290;48.148;17.106;2022-12-15T01:03:09;35.22;;;20.52;;
27953;SDS011;15290;48.148;17.106;2022-12-15T01:05:58;35.72;;;20.63;;
27953;SDS011;15290;48.148;17.106;2022-12-15T01:08:42;32.67;;;19.73;;
27953;SDS011;15290;48.148;17.106;2022-12-15T01:11:27;36.13;;;20.30;;
27953;SDS011;15290;48.148;17.106;2022-12-15T01:14:12;34.95;;;20.80;;
27953;SDS011;15290;48.148;17.106;2022-12-15T01:16:56;40.20;;;23.02;;
27953;SDS011;15290;48.148;17.106;2022-12-15T01:19:41;46.15;;;26.35;;
27953;SDS011;15290;48.148;17.106;2022-12-15T01:22:25;45.35;;;25.98;;
27953;SDS011;15290;48.148;17.106;2022-12-15T01:24:51;48.40;;;26.63;;
27953;SDS011;15290;48.148;17.106;2022-12-15T01:27:17;45.72;;;25.83;;
27953;SDS011;15290;48.148;17.106;2022-12-15T01:29:44;48.42;;;26.67;;
27953;SDS011;15290;48.148;17.106;2022-12-15T01:32:11;42.35;;;24.35;;
27953;SDS011;15290;48.148;17.106;2022-12-15T01:34:37;44.95;;;25.48;;
27953;SDS011;15290;48.148;17.106;2022-12-15T01:37:03;40.40;;;24.42;;
27953;SDS011;15290;48.148;17.106;2022-12-15T01:39:28;42.03;;;23.90;;
27953;SDS011;15290;48.148;17.106;2022-12-15T01:42:14;40.13;;;22.75;;
27953;SDS011;15290;48.148;17.106;2022-12-15T01:44:40;40.45;;;23.77;;
27953;SDS011;15290;48.148;17.106;2022-12-15T01:47:07;43.25;;;23.52;;
27953;SDS011;15290;48.148;17.106;2022-12-15T01:49:37;40.72;;;22.85;;
27953;SDS011;15290;48.148;17.106;2022-12-15T01:52:04;39.28;;;23.30;;
27953;SDS011;15290;48.148;17.106;2022-12-15T01:54:52;39.30;;;23.48;;
27953;SDS011;15290;48.148;17.106;2022-12-15T01:57:24;44.03;;;23.90;;
27953;SDS011;15290;48.148;17.106;2022-12-15T01:59:54;46.13;;;24.88;;
27953;SDS011;15290;48.148;17.106;2022-12-15T02:02:25;44.13;;;25.65;;
27953;SDS011;15290;48.148;17.106;2022-12-15T02:04:52;41.92;;;25.30;;
27953;SDS011;15290;48.148;17.106;2022-12-15T02:07:23;42.17;;;25.02;;
27953;SDS011;15290;48.148;17.106;2022-12-15T02:09:49;42.75;;;24.30;;
27953;SDS011;15290;48.148;17.106;2022-12-15T02:17:48;45.55;;;25.92;;
27953;SDS011;15290;48.148;17.106;2022-12-15T02:20:34;47.75;;;26.45;;
27953;SDS011;15290;48.148;17.106;2022-12-15T02:23:33;44.22;;;24.80;;
27953;SDS011;15290;48.148;17.106;2022-12-15T02:26:38;43.72;;;25.38;;
27953;SDS011;15290;48.148;17.106;2022-12-15T02:29:50;41.88;;;23.65;;
27953;SDS011;15290;48.148;17.106;2022-12-15T02:38:12;46.58;;;26.30;;
27953;SDS011;15290;48.148;17.106;2022-12-15T02:40:38;50.75;;;27.05;;
27953;SDS011;15290;48.148;17.106;2022-12-15T02:43:04;50.53;;;27.63;;
27953;SDS011;15290;48.148;17.106;2022-12-15T02:45:52;49.90;;;27.98;;
27953;SDS011;15290;48.148;17.106;2022-12-15T02:48:27;51.60;;;26.85;;
27953;SDS011;15290;48.148;17.106;2022-12-15T03:02:20;46.47;;;26.48;;
27953;SDS011;15290;48.148;17.106;2022-12-15T03:04:29;47.97;;;26.67;;
27953;SDS011;15290;48.148;17.106;2022-12-15T03:06:59;47.15;;;27.05;;
27953;SDS011;15290;48.148;17.106;2022-12-15T03:09:28;45.65;;;26.63;;
27953;SDS011;15290;48.148;17.106;2022-12-15T03:11:54;47.47;;;27.10;;
27953;SDS011;15290;48.148;17.106;2022-12-15T03:14:20;45.58;;;26.80;;
27953;SDS011;15290;48.148;17.106;2022-12-15T03:16:47;43.33;;;24.73;;
27953;SDS011;15290;48.148;17.106;2022-12-15T03:19:15;48.50;;;26.85;;
27953;SDS011;15290;48.148;17.106;2022-12-15T03:21:40;44.58;;;25.65;;
27953;SDS011;15290;48.148;17.106;2022-12-15T03:24:06;44.88;;;26.42;;
27953;SDS011;15290;48.148;17.106;2022-12-15T03:26:32;46.63;;;25.88;;
27953;SDS011;15290;48.148;17.106;2022-12-15T03:28:57;45.85;;;25.65;;
27953;SDS011;15290;48.148;17.106;2022-12-15T03:31:23;46.25;;;26.45;;
27953;SDS011;15290;48.148;17.106;2022-12-15T03:33:49;40.53;;;23.88;;
27953;SDS011;15290;48.148;17.106;2022-12-15T03:36:14;42.05;;;25.13;;
27953;SDS011;15290;48.148;17.106;2022-12-15T03:38:40;40.55;;;24.50;;
27953;SDS011;15290;48.148;17.106;2022-12-15T03:41:05;49.13;;;25.65;;
27953;SDS011;15290;48.148;17.106;2022-12-15T03:43:31;45.72;;;26.77;;
27953;SDS011;15290;48.148;17.106;2022-12-15T03:45:57;44.83;;;26.23;;
27953;SDS011;15290;48.148;17.106;2022-12-15T03:48:22;42.17;;;24.90;;
27953;SDS011;15290;48.148;17.106;2022-12-15T03:50:48;45.45;;;25.80;;
27953;SDS011;15290;48.148;17.106;2022-12-15T03:53:14;44.53;;;25.77;;
27953;SDS011;15290;48.148;17.106;2022-12-15T03:55:40;45.55;;;25.10;;
27953;SDS011;15290;48.148;17.106;2022-12-15T03:58:05;42.67;;;24.75;;
27953;SDS011;15290;48.148;17.106;2022-12-15T04:00:31;46.15;;;25.25;;
27953;SDS011;15290;48.148;17.106;2022-12-15T04:02:57;40.47;;;24.17;;
27953;SDS011;15290;48.148;17.106;2022-12-15T04:05:24;39.38;;;23.98;;
27953;SDS011;15290;48.148;17.106;2022-12-15T04:07:52;43.53;;;24.50;;
27953;SDS011;15290;48.148;17.106;2022-12-15T04:10:18;40.22;;;22.73;;
27953;SDS011;15290;48.148;17.106;2022-12-15T04:12:44;40.95;;;23.60;;
27953;SDS011;15290;48.148;17.106;2022-12-15T04:15:10;43.20;;;24.15;;
27953;SDS011;15290;48.148;17.106;2022-12-15T04:17:36;42.35;;;24.52;;
27953;SDS011;15290;48.148;17.106;2022-12-15T04:20:02;38.17;;;23.08;;
27953;SDS011;15290;48.148;17.106;2022-12-15T04:22:39;42.30;;;24.25;;
27953;SDS011;15290;48.148;17.106;2022-12-15T04:25:07;44.30;;;25.25;;
27953;SDS011;15290;48.148;17.106;2022-12-15T04:27:57;45.53;;;24.95;;
27953;SDS011;15290;48.148;17.106;2022-12-15T04:30:47;45.00;;;24.80;;
27953;SDS011;15290;48.148;17.106;2022-12-15T04:33:45;50.28;;;27.15;;
27953;SDS011;15290;48.148;17.106;2022-12-15T04:36:33;46.65;;;27.25;;
27953;SDS011;15290;48.148;17.106;2022-12-15T04:39:18;50.97;;;27.70;;
27953;SDS011;15290;48.148;17.106;2022-12-15T04:42:02;50.97;;;28.63;;
27953;SDS011;15290;48.148;17.106;2022-12-15T04:44:48;55.35;;;28.30;;
27953;SDS011;15290;48.148;17.106;2022-12-15T04:47:34;52.35;;;28.52;;
27953;SDS011;15290;48.148;17.106;2022-12-15T04:50:19;49.72;;;28.38;;
27953;SDS011;15290;48.148;17.106;2022-12-15T04:53:10;49.42;;;27.92;;
27953;SDS011;15290;48.148;17.106;2022-12-15T04:55:56;50.92;;;27.05;;
27953;SDS011;15290;48.148;17.106;2022-12-15T04:58:41;48.88;;;27.17;;
27953;SDS011;15290;48.148;17.106;2022-12-15T05:01:26;48.10;;;26.52;;
27953;SDS011;15290;48.148;17.106;2022-12-15T05:04:10;46.03;;;26.95;;
27953;SDS011;15290;48.148;17.106;2022-12-15T05:06:55;45.83;;;26.65;;
27953;SDS011;15290;48.148;17.106;2022-12-15T05:09:39;47.80;;;25.58;;
27953;SDS011;15290;48.148;17.106;2022-12-15T05:12:23;45.53;;;25.42;;
27953;SDS011;15290;48.148;17.106;2022-12-15T05:15:07;46.78;;;25.90;;
27953;SDS011;15290;48.148;17.106;2022-12-15T05:17:51;43.92;;;25.63;;
27953;SDS011;15290;48.148;17.106;2022-12-15T05:20:36;45.83;;;26.60;;
27953;SDS011;15290;48.148;17.106;2022-12-15T05:23:20;46.03;;;26.40;;
27953;SDS011;15290;48.148;17.106;2022-12-15T05:26:05;49.33;;;26.50;;
27953;SDS011;15290;48.148;17.106;2022-12-15T05:28:49;46.20;;;26.67;;
27953;SDS011;15290;48.148;17.106;2022-12-15T05:31:33;48.45;;;27.70;;
27953;SDS011;15290;48.148;17.106;2022-12-15T05:34:12;47.90;;;27.02;;
27953;SDS011;15290;48.148;17.106;2022-12-15T05:36:37;50.30;;;28.25;;
27953;SDS011;15290;48.148;17.106;2022-12-15T05:39:03;52.00;;;27.70;;
27953;SDS011;15290;48.148;17.106;2022-12-15T05:41:29;43.28;;;25.95;;
27953;SDS011;15290;48.148;17.106;2022-12-15T05:43:54;46.00;;;26.83;;
27953;SDS011;15290;48.148;17.106;2022-12-15T05:46:20;52.13;;;28.27;;
27953;SDS011;15290;48.148;17.106;2022-12-15T05:48:46;47.13;;;27.38;;
27953;SDS011;15290;48.148;17.106;2022-12-15T05:51:12;47.13;;;27.20;;
27953;SDS011;15290;48.148;17.106;2022-12-15T05:53:38;45.70;;;27.25;;
27953;SDS011;15290;48.148;17.106;2022-12-15T05:56:06;49.33;;;27.27;;
27953;SDS011;15290;48.148;17.106;2022-12-15T05:58:34;48.33;;;27.00;;
27953;SDS011;15290;48.148;17.106;2022-12-15T06:01:04;51.55;;;28.58;;
27953;SDS011;15290;48.148;17.106;2022-12-15T06:03:32;51.65;;;27.48;;
27953;SDS011;15290;48.148;17.106;2022-12-15T06:05:58;47.75;;;26.92;;
27953;SDS011;15290;48.148;17.106;2022-12-15T06:08:28;46.00;;;27.42;;
27953;SDS011;15290;48.148;17.106;2022-12-15T06:10:55;47.10;;;26.98;;
27953;SDS011;15290;48.148;17.106;2022-12-15T06:13:24;49.55;;;28.30;;
27953;SDS011;15290;48.148;17.106;2022-12-15T06:15:54;52.00;;;28.13;;
27953;SDS011;15290;48.148;17.106;2022-12-15T06:18:29;53.15;;;28.15;;
27953;SDS011;15290;48.148;17.106;2022-12-15T06:21:00;46.58;;;27.30;;
27953;SDS011;15290;48.148;17.106;2022-12-15T06:23:39;52.97;;;27.40;;
27953;SDS011;15290;48.148;17.106;2022-12-15T06:26:10;50.35;;;27.00;;
27953;SDS011;15290;48.148;17.106;2022-12-15T06:28:38;53.13;;;28.60;;
27953;SDS011;15290;48.148;17.106;2022-12-15T06:31:07;50.83;;;29.30;;
27953;SDS011;15290;48.148;17.106;2022-12-15T06:33:35;51.88;;;28.50;;
27953;SDS011;15290;48.148;17.106;2022-12-15T06:36:06;50.92;;;27.90;;
27953;SDS011;15290;48.148;17.106;2022-12-15T06:38:35;49.63;;;28.38;;
27953;SDS011;15290;48.148;17.106;2022-12-15T06:41:01;52.53;;;29.80;;
27953;SDS011;15290;48.148;17.106;2022-12-15T06:43:28;58.63;;;28.98;;
27953;SDS011;15290;48.148;17.106;2022-12-15T06:45:55;52.22;;;28.55;;
27953;SDS011;15290;48.148;17.106;2022-12-15T06:48:22;51.88;;;28.55;;
27953;SDS011;15290;48.148;17.106;2022-12-15T06:50:48;57.00;;;28.02;;
27953;SDS011;15290;48.148;17.106;2022-12-15T06:53:15;48.63;;;27.58;;
27953;SDS011;15290;48.148;17.106;2022-12-15T06:55:43;50.80;;;28.17;;
27953;SDS011;15290;48.148;17.106;2022-12-15T06:58:09;49.55;;;28.50;;
27953;SDS011;15290;48.148;17.106;2022-12-15T07:00:39;49.65;;;27.42;;
27953;SDS011;15290;48.148;17.106;2022-12-15T07:03:08;50.13;;;28.88;;
27953;SDS011;15290;48.148;17.106;2022-12-15T07:05:36;47.97;;;27.80;;
27953;SDS011;15290;48.148;17.106;2022-12-15T07:08:02;48.35;;;28.92;;
27953;SDS011;15290;48.148;17.106;2022-12-15T07:10:28;52.08;;;28.45;;
27953;SDS011;15290;48.148;17.106;2022-12-15T07:12:57;55.78;;;29.85;;
27953;SDS011;15290;48.148;17.106;2022-12-15T07:15:23;52.53;;;29.38;;
27953;SDS011;15290;48.148;17.106;2022-12-15T07:17:49;49.58;;;28.55;;
27953;SDS011;15290;48.148;17.106;2022-12-15T07:20:15;55.60;;;30.52;;
27953;SDS011;15290;48.148;17.106;2022-12-15T07:22:41;66.13;;;33.92;;
27953;SDS011;15290;48.148;17.106;2022-12-15T07:25:07;73.55;;;35.55;;
27953;SDS011;15290;48.148;17.106;2022-12-15T07:27:33;80.85;;;39.47;;
27953;SDS011;15290;48.148;17.106;2022-12-15T07:30:02;79.15;;;38.28;;
27953;SDS011;15290;48.148;17.106;2022-12-15T07:32:28;74.57;;;37.90;;
27953;SDS011;15290;48.148;17.106;2022-12-15T07:34:57;82.80;;;39.72;;
27953;SDS011;15290;48.148;17.106;2022-12-15T07:37:23;78.50;;;39.85;;
27953;SDS011;15290;48.148;17.106;2022-12-15T07:39:49;76.25;;;39.33;;
27953;SDS011;15290;48.148;17.106;2022-12-15T07:42:15;79.65;;;39.22;;
27953;SDS011;15290;48.148;17.106;2022-12-15T07:44:41;77.15;;;38.65;;
27953;SDS011;15290;48.148;17.106;2022-12-15T07:47:07;75.78;;;39.25;;
27953;SDS011;15290;48.148;17.106;2022-12-15T07:49:34;79.18;;;37.85;;
27953;SDS011;15290;48.148;17.106;2022-12-15T07:51:59;79.05;;;39.78;;
27953;SDS011;15290;48.148;17.106;2022-12-15T07:54:25;78.25;;;40.25;;
27953;SDS011;15290;48.148;17.106;2022-12-15T07:56:51;77.68;;;38.78;;
27953;SDS011;15290;48.148;17.106;2022-12-15T07:59:18;70.97;;;35.47;;
27953;SDS011;15290;48.148;17.106;2022-12-15T08:01:44;72.10;;;35.55;;
27953;SDS011;15290;48.148;17.106;2022-12-15T08:04:10;69.60;;;34.55;;
27953;SDS011;15290;48.148;17.106;2022-12-15T08:06:36;67.93;;;33.80;;
27953;SDS011;15290;48.148;17.106;2022-12-15T08:09:01;70.28;;;33.30;;
27953;SDS011;15290;48.148;17.106;2022-12-15T08:11:27;61.22;;;31.65;;
27953;SDS011;15290;48.148;17.106;2022-12-15T08:13:53;61.50;;;30.92;;
27953;SDS011;15290;48.148;17.106;2022-12-15T08:16:19;65.55;;;33.65;;
27953;SDS011;15290;48.148;17.106;2022-12-15T08:18:45;63.55;;;32.83;;
27953;SDS011;15290;48.148;17.106;2022-12-15T08:21:12;66.43;;;33.60;;
27953;SDS011;15290;48.148;17.106;2022-12-15T08:23:38;61.88;;;32.67;;
27953;SDS011;15290;48.148;17.106;2022-12-15T08:26:09;61.40;;;31.52;;
27953;SDS011;15290;48.148;17.106;2022-12-15T08:28:37;62.70;;;32.92;;
27953;SDS011;15290;48.148;17.106;2022-12-15T08:31:05;65.00;;;32.53;;
27953;SDS011;15290;48.148;17.106;2022-12-15T08:33:33;61.33;;;32.63;;
27953;SDS011;15290;48.148;17.106;2022-12-15T08:36:00;63.58;;;32.45;;
27953;SDS011;15290;48.148;17.106;2022-12-15T08:38:28;68.60;;;33.55;;
27953;SDS011;15290;48.148;17.106;2022-12-15T08:40:55;65.65;;;32.67;;
27953;SDS011;15290;48.148;17.106;2022-12-15T08:43:22;70.45;;;33.90;;
27953;SDS011;15290;48.148;17.106;2022-12-15T08:45:55;66.63;;;34.42;;
27953;SDS011;15290;48.148;17.106;2022-12-15T08:48:24;70.20;;;35.15;;
27953;SDS011;15290;48.148;17.106;2022-12-15T08:50:49;66.97;;;35.33;;
27953;SDS011;15290;48.148;17.106;2022-12-15T08:53:15;67.50;;;33.67;;
27953;SDS011;15290;48.148;17.106;2022-12-15T08:55:41;68.75;;;36.05;;
27953;SDS011;15290;48.148;17.106;2022-12-15T08:58:07;69.18;;;37.40;;
27953;SDS011;15290;48.148;17.106;2022-12-15T09:00:33;73.72;;;35.95;;
27953;SDS011;15290;48.148;17.106;2022-12-15T09:02:58;68.97;;;35.72;;
27953;SDS011;15290;48.148;17.106;2022-12-15T09:05:25;65.82;;;34.92;;
27953;SDS011;15290;48.148;17.106;2022-12-15T09:07:57;72.75;;;37.67;;
27953;SDS011;15290;48.148;17.106;2022-12-15T09:10:23;71.15;;;37.45;;
27953;SDS011;15290;48.148;17.106;2022-12-15T09:12:49;70.25;;;38.72;;
27953;SDS011;15290;48.148;17.106;2022-12-15T09:15:15;73.90;;;39.33;;
27953;SDS011;15290;48.148;17.106;2022-12-15T09:17:43;70.72;;;39.33;;
27953;SDS011;15290;48.148;17.106;2022-12-15T09:20:11;74.30;;;38.60;;
27953;SDS011;15290;48.148;17.106;2022-12-15T09:22:39;75.63;;;39.47;;
27953;SDS011;15290;48.148;17.106;2022-12-15T09:25:05;66.22;;;37.47;;
27953;SDS011;15290;48.148;17.106;2022-12-15T09:27:31;72.35;;;38.13;;
27953;SDS011;15290;48.148;17.106;2022-12-15T09:29:59;69.47;;;38.35;;
27953;SDS011;15290;48.148;17.106;2022-12-15T09:32:25;66.22;;;37.50;;
27953;SDS011;15290;48.148;17.106;2022-12-15T09:34:51;72.45;;;38.17;;
27953;SDS011;15290;48.148;17.106;2022-12-15T09:37:17;71.35;;;38.67;;
27953;SDS011;15290;48.148;17.106;2022-12-15T09:39:44;76.65;;;40.80;;
27953;SDS011;15290;48.148;17.106;2022-12-15T09:42:28;67.15;;;36.00;;
27953;SDS011;15290;48.148;17.106;2022-12-15T09:45:06;71.05;;;37.70;;
27953;SDS011;15290;48.148;17.106;2022-12-15T09:47:50;73.47;;;36.97;;
27953;SDS011;15290;48.148;17.106;2022-12-15T09:53:19;65.45;;;34.70;;
27953;SDS011;15290;48.148;17.106;2022-12-15T09:55:51;66.85;;;36.85;;
27953;SDS011;15290;48.148;17.106;2022-12-15T09:58:31;67.65;;;35.58;;
27953;SDS011;15290;48.148;17.106;2022-12-15T10:01:29;66.90;;;35.65;;
27953;SDS011;15290;48.148;17.106;2022-12-15T10:09:25;68.47;;;36.50;;
27953;SDS011;15290;48.148;17.106;2022-12-15T10:11:55;69.25;;;35.67;;
27953;SDS011;15290;48.148;17.106;2022-12-15T10:22:47;68.15;;;34.97;;
27953;SDS011;15290;48.148;17.106;2022-12-15T10:25:14;63.53;;;35.10;;
27953;SDS011;15290;48.148;17.106;2022-12-15T10:27:51;69.38;;;35.63;;
27953;SDS011;15290;48.148;17.106;2022-12-15T10:30:24;72.93;;;36.25;;
27953;SDS011;15290;48.148;17.106;2022-12-15T10:35:25;70.15;;;36.28;;
27953;SDS011;15290;48.148;17.106;2022-12-15T10:37:58;67.50;;;35.58;;
27953;SDS011;15290;48.148;17.106;2022-12-15T10:40:45;62.97;;;34.88;;
27953;SDS011;15290;48.148;17.106;2022-12-15T10:43:40;65.88;;;34.55;;
27953;SDS011;15290;48.148;17.106;2022-12-15T10:51:19;62.33;;;33.50;;
27953;SDS011;15290;48.148;17.106;2022-12-15T10:53:52;60.95;;;33.35;;
27953;SDS011;15290;48.148;17.106;2022-12-15T10:56:25;59.70;;;34.00;;
27953;SDS011;15290;48.148;17.106;2022-12-15T10:58:53;58.75;;;33.10;;
27953;SDS011;15290;48.148;17.106;2022-12-15T11:01:25;59.80;;;33.55;;
27953;SDS011;15290;48.148;17.106;2022-12-15T11:03:53;66.13;;;34.95;;
27953;SDS011;15290;48.148;17.106;2022-12-15T11:06:20;62.47;;;34.40;;
27953;SDS011;15290;48.148;17.106;2022-12-15T11:09:07;66.63;;;34.85;;
27953;SDS011;15290;48.148;17.106;2022-12-15T11:11:50;63.75;;;33.80;;
27953;SDS011;15290;48.148;17.106;2022-12-15T11:14:44;66.32;;;34.58;;
27953;SDS011;15290;48.148;17.106;2022-12-15T11:17:18;67.30;;;34.50;;
27953;SDS011;15290;48.148;17.106;2022-12-15T11:19:51;69.13;;;35.92;;
27953;SDS011;15290;48.148;17.106;2022-12-15T11:28:22;127.68;;;64.53;;
27953;SDS011;15290;48.148;17.106;2022-12-15T11:31:04;65.70;;;35.80;;
27953;SDS011;15290;48.148;17.106;2022-12-15T11:33:37;66.65;;;36.13;;
27953;SDS011;15290;48.148;17.106;2022-12-15T11:38:57;72.13;;;36.03;;
27953;SDS011;15290;48.148;17.106;2022-12-15T11:41:47;69.57;;;35.75;;
27953;SDS011;15290;48.148;17.106;2022-12-15T11:44:41;68.88;;;34.80;;
27953;SDS011;15290;48.148;17.106;2022-12-15T11:47:28;70.47;;;35.63;;
27953;SDS011;15290;48.148;17.106;2022-12-15T11:50:15;70.43;;;36.72;;
27953;SDS011;15290;48.148;17.106;2022-12-15T11:52:55;70.88;;;35.90;;
27953;SDS011;15290;48.148;17.106;2022-12-15T11:55:39;70.70;;;34.90;;
27953;SDS011;15290;48.148;17.106;2022-12-15T12:00:52;70.10;;;36.60;;
27953;SDS011;15290;48.148;17.106;2022-12-15T12:03:39;77.68;;;37.17;;
27953;SDS011;15290;48.148;17.106;2022-12-15T12:06:54;75.03;;;35.42;;
27953;SDS011;15290;48.148;17.106;2022-12-15T12:09:43;74.03;;;36.65;;
27953;SDS011;15290;48.148;17.106;2022-12-15T12:12:29;70.25;;;36.35;;
27953;SDS011;15290;48.148;17.106;2022-12-15T12:15:27;70.50;;;37.17;;
27953;SDS011;15290;48.148;17.106;2022-12-15T12:18:17;72.35;;;37.72;;
27953;SDS011;15290;48.148;17.106;2022-12-15T12:20:54;69.13;;;36.60;;
27953;SDS011;15290;48.148;17.106;2022-12-15T12:23:49;80.20;;;38.17;;
27953;SDS011;15290;48.148;17.106;2022-12-15T12:26:40;75.03;;;36.90;;
27953;SDS011;15290;48.148;17.106;2022-12-15T12:29:14;79.35;;;36.38;;
27953;SDS011;15290;48.148;17.106;2022-12-15T12:34:28;77.45;;;38.38;;
27953;SDS011;15290;48.148;17.106;2022-12-15T12:37:15;74.28;;;36.78;;
27953;SDS011;15290;48.148;17.106;2022-12-15T12:39:49;76.15;;;36.50;;
27953;SDS011;15290;48.148;17.106;2022-12-15T12:44:55;77.88;;;37.53;;
27953;SDS011;15290;48.148;17.106;2022-12-15T12:47:22;77.55;;;38.15;;
27953;SDS011;15290;48.148;17.106;2022-12-15T12:49:59;74.25;;;36.22;;
27953;SDS011;15290;48.148;17.106;2022-12-15T12:52:36;75.47;;;36.13;;
27953;SDS011;15290;48.148;17.106;2022-12-15T12:57:40;78.28;;;36.92;;
27953;SDS011;15290;48.148;17.106;2022-12-15T13:02:55;78.28;;;36.78;;
27953;SDS011;15290;48.148;17.106;2022-12-15T13:05:40;76.65;;;37.45;;
27953;SDS011;15290;48.148;17.106;2022-12-15T13:10:35;77.57;;;37.20;;
27953;SDS011;15290;48.148;17.106;2022-12-15T13:18:37;71.63;;;36.28;;
27953;SDS011;15290;48.148;17.106;2022-12-15T13:27:02;141.65;;;76.35;;
27953;SDS011;15290;48.148;17.106;2022-12-15T13:29:28;77.75;;;38.30;;
27953;SDS011;15290;48.148;17.106;2022-12-15T13:31:55;77.85;;;36.78;;
27953;SDS011;15290;48.148;17.106;2022-12-15T13:34:25;88.68;;;43.72;;
27953;SDS011;15290;48.148;17.106;2022-12-15T13:36:54;82.63;;;38.22;;
27953;SDS011;15290;48.148;17.106;2022-12-15T13:44:29;82.20;;;39.88;;
27953;SDS011;15290;48.148;17.106;2022-12-15T13:47:08;81.38;;;39.08;;
27953;SDS011;15290;48.148;17.106;2022-12-15T13:49:50;82.40;;;38.53;;
27953;SDS011;15290;48.148;17.106;2022-12-15T13:54:53;83.15;;;39.95;;
27953;SDS011;15290;48.148;17.106;2022-12-15T13:57:32;84.85;;;39.67;;
27953;SDS011;15290;48.148;17.106;2022-12-15T14:00:13;89.55;;;40.30;;
27953;SDS011;15290;48.148;17.106;2022-12-15T14:02:43;90.50;;;41.42;;
27953;SDS011;15290;48.148;17.106;2022-12-15T14:13:21;86.35;;;40.58;;
27953;SDS011;15290;48.148;17.106;2022-12-15T14:15:50;94.88;;;40.63;;
27953;SDS011;15290;48.148;17.106;2022-12-15T14:18:24;95.00;;;40.78;;
27953;SDS011;15290;48.148;17.106;2022-12-15T14:20:53;93.40;;;41.33;;
27953;SDS011;15290;48.148;17.106;2022-12-15T14:23:20;90.75;;;40.67;;
27953;SDS011;15290;48.148;17.106;2022-12-15T14:25:51;91.93;;;40.03;;
27953;SDS011;15290;48.148;17.106;2022-12-15T14:28:25;91.95;;;40.25;;
27953;SDS011;15290;48.148;17.106;2022-12-15T14:30:57;94.63;;;41.83;;
27953;SDS011;15290;48.148;17.106;2022-12-15T14:33:48;89.30;;;39.38;;
27953;SDS011;15290;48.148;17.106;2022-12-15T14:36:24;87.13;;;39.15;;
27953;SDS011;15290;48.148;17.106;2022-12-15T14:38:52;92.35;;;39.97;;
27953;SDS011;15290;48.148;17.106;2022-12-15T14:41:24;96.63;;;40.63;;
27953;SDS011;15290;48.148;17.106;2022-12-15T14:43:54;96.05;;;40.92;;
27953;SDS011;15290;48.148;17.106;2022-12-15T14:46:23;95.63;;;41.30;;
27953;SDS011;15290;48.148;17.106;2022-12-15T14:48:52;88.28;;;38.75;;
27953;SDS011;15290;48.148;17.106;2022-12-15T14:51:22;93.05;;;40.92;;
27953;SDS011;15290;48.148;17.106;2022-12-15T14:53:51;95.93;;;41.65;;
27953;SDS011;15290;48.148;17.106;2022-12-15T14:58:57;97.53;;;40.28;;
27953;SDS011;15290;48.148;17.106;2022-12-15T15:01:35;108.28;;;45.10;;
27953;SDS011;15290;48.148;17.106;2022-12-15T15:04:29;95.72;;;40.50;;
27953;SDS011;15290;48.148;17.106;2022-12-15T15:06:55;111.40;;;42.50;;
27953;SDS011;15290;48.148;17.106;2022-12-15T15:09:25;106.13;;;41.95;;
27953;SDS011;15290;48.148;17.106;2022-12-15T15:11:59;106.65;;;41.42;;
27953;SDS011;15290;48.148;17.106;2022-12-15T15:17:37;121.22;;;45.70;;
27953;SDS011;15290;48.148;17.106;2022-12-15T15:20:16;119.43;;;43.70;;
27953;SDS011;15290;48.148;17.106;2022-12-15T15:22:45;124.28;;;45.28;;
27953;SDS011;15290;48.148;17.106;2022-12-15T15:28:11;123.90;;;44.22;;
27953;SDS011;15290;48.148;17.106;2022-12-15T15:30:41;121.90;;;44.20;;
27953;SDS011;15290;48.148;17.106;2022-12-15T15:33:15;116.90;;;44.50;;
27953;SDS011;15290;48.148;17.106;2022-12-15T15:35:42;111.95;;;44.25;;
27953;SDS011;15290;48.148;17.106;2022-12-15T15:38:15;101.18;;;42.28;;
27953;SDS011;15290;48.148;17.106;2022-12-15T15:40:55;109.50;;;42.42;;
27953;SDS011;15290;48.148;17.106;2022-12-15T15:43:27;116.07;;;40.53;;
27953;SDS011;15290;48.148;17.106;2022-12-15T15:45:57;108.32;;;41.13;;
27953;SDS011;15290;48.148;17.106;2022-12-15T15:48:27;118.80;;;41.25;;
27953;SDS011;15290;48.148;17.106;2022-12-15T15:50:55;117.07;;;43.90;;
27953;SDS011;15290;48.148;17.106;2022-12-15T15:53:22;110.63;;;41.22;;
27953;SDS011;15290;48.148;17.106;2022-12-15T15:55:50;110.97;;;42.20;;
27953;SDS011;15290;48.148;17.106;2022-12-15T15:58:18;113.82;;;42.30;;
27953;SDS011;15290;48.148;17.106;2022-12-15T16:00:44;105.15;;;41.53;;
27953;SDS011;15290;48.148;17.106;2022-12-15T16:03:10;112.05;;;41.33;;
27953;SDS011;15290;48.148;17.106;2022-12-15T16:05:36;111.03;;;41.85;;
27953;SDS011;15290;48.148;17.106;2022-12-15T16:08:04;111.45;;;41.97;;
27953;SDS011;15290;48.148;17.106;2022-12-15T16:10:39;101.70;;;40.70;;
27953;SDS011;15290;48.148;17.106;2022-12-15T16:13:08;109.15;;;42.10;;
27953;SDS011;15290;48.148;17.106;2022-12-15T16:15:35;102.55;;;42.03;;
27953;SDS011;15290;48.148;17.106;2022-12-15T16:18:02;107.07;;;41.28;;
27953;SDS011;15290;48.148;17.106;2022-12-15T16:20:28;112.32;;;43.97;;
27953;SDS011;15290;48.148;17.106;2022-12-15T16:23:04;107.72;;;42.88;;
27953;SDS011;15290;48.148;17.106;2022-12-15T16:25:36;98.35;;;40.97;;
27953;SDS011;15290;48.148;17.106;2022-12-15T16:28:14;105.40;;;41.28;;
27953;SDS011;15290;48.148;17.106;2022-12-15T16:30:46;100.82;;;40.88;;